Time;durP1;ratioP1;P1;durP2;ratioP2;P2;SDS_P1;SDS_P2;PMS_P1;PMS_P2;Temp;Humidity;BMP_temperature;BMP_pressure;BME280_temperature;BME280_humidity;BME280_pressure;Samples;Min_cycle;Max_cycle;Signal;HPM_P1;HPM_P2
2021/12/28 00:00:26;;;;;;;103.15;53.92;;;;;;;5.45;84.86;99127.91;5092429;28;20032;-52
2021/12/28 00:02:52;;;;;;;94.43;50.50;;;;;;;5.37;84.63;99125.41;5091742;28;20120;-51
2021/12/28 00:05:18;;;;;;;93.50;49.80;;;;;;;5.36;84.65;99128.22;5091674;28;20103;-49
2021/12/28 00:07:43;;;;;;;91.50;48.67;;;;;;;5.22;84.87;99143.06;5091809;28;20091;-49
2021/12/28 00:10:10;;;;;;;92.95;50.20;;;;;;;5.26;84.52;99144.34;5091774;28;20612;-50
2021/12/28 00:12:38;;;;;;;99.00;49.05;;;;;;;5.30;84.30;99145.59;5092075;28;20464;-50
2021/12/28 00:18:03;;;;;;;90.90;47.13;;;;;;;5.29;85.49;99150.06;5079997;28;20046;-50
2021/12/28 00:20:30;;;;;;;85.70;44.40;;;;;;;5.30;85.26;99158.78;5091758;28;20445;-49
2021/12/28 00:22:55;;;;;;;87.88;45.92;;;;;;;5.27;84.92;99159.16;5092055;28;20054;-51
2021/12/28 00:25:21;;;;;;;83.40;44.22;;;;;;;5.26;86.47;99160.16;5091751;28;20484;-49
2021/12/28 00:27:46;;;;;;;81.13;41.45;;;;;;;5.34;86.42;99164.53;5091525;28;20058;-52
2021/12/28 00:30:12;;;;;;;78.20;40.10;;;;;;;5.38;86.31;99165.78;5091653;28;20028;-51
2021/12/28 00:32:38;;;;;;;73.07;39.10;;;;;;;5.52;85.48;99170.25;5091565;28;20028;-39
2021/12/28 00:35:04;;;;;;;74.85;40.35;;;;;;;5.47;85.56;99164.69;5091445;28;20036;-39
2021/12/28 00:37:30;;;;;;;75.97;40.35;;;;;;;5.48;84.92;99163.66;5091791;28;20028;-39
2021/12/28 00:39:55;;;;;;;81.47;42.05;;;;;;;5.40;84.76;99164.59;5091503;28;20036;-40
2021/12/28 00:42:21;;;;;;;89.25;43.95;;;;;;;5.41;84.31;99166.25;5091449;28;20024;-40
2021/12/28 00:44:46;;;;;;;84.25;44.00;;;;;;;5.38;84.09;99171.06;5091547;28;20097;-40
2021/12/28 00:47:12;;;;;;;80.80;43.88;;;;;;;5.19;84.45;99172.44;5091452;28;20457;-40
2021/12/28 00:49:37;;;;;;;81.57;42.78;;;;;;;5.02;84.92;99154.16;5091198;28;20067;-40
2021/12/28 00:52:03;;;;;;;84.57;42.10;;;;;;;5.19;85.58;99175.88;5091359;28;20100;-40
2021/12/28 00:54:28;;;;;;;86.03;42.97;;;;;;;4.93;85.44;99171.09;5090938;28;20161;-40
2021/12/28 00:56:54;;;;;;;75.03;41.80;;;;;;;5.04;85.89;99175.06;5091011;28;20039;-40
2021/12/28 00:59:19;;;;;;;81.47;43.40;;;;;;;5.09;86.34;99170.88;5090953;28;20411;-40
2021/12/28 01:01:47;;;;;;;79.63;41.25;;;;;;;5.22;86.05;99159.69;5091016;28;20031;-39
2021/12/28 01:04:12;;;;;;;78.47;40.45;;;;;;;5.31;86.46;99146.41;5091231;28;20100;-40
2021/12/28 01:06:38;;;;;;;75.10;40.33;;;;;;;5.39;86.29;99148.97;5090797;28;20413;-40
2021/12/28 01:09:03;;;;;;;68.80;38.60;;;;;;;5.37;86.63;99140.38;5090739;28;20042;-39
2021/12/28 01:11:29;;;;;;;73.40;37.20;;;;;;;5.60;85.22;99150.84;5090694;28;20032;-39
2021/12/28 01:13:54;;;;;;;70.47;37.00;;;;;;;5.77;84.35;99156.69;5090858;28;20384;-40
2021/12/28 01:16:20;;;;;;;74.40;39.13;;;;;;;6.11;82.67;99158.72;5090604;28;20025;-39
2021/12/28 01:18:45;;;;;;;73.35;39.90;;;;;;;5.71;83.76;99154.78;5090965;28;20456;-40
2021/12/28 01:21:11;;;;;;;68.82;38.00;;;;;;;5.54;83.45;99159.47;5090683;28;20028;-39
2021/12/28 01:23:36;;;;;;;72.28;38.75;;;;;;;5.40;85.20;99164.59;5090606;28;20016;-39
2021/12/28 01:26:02;;;;;;;75.88;40.80;;;;;;;5.45;84.02;99167.50;5090732;28;20031;-39
2021/12/28 01:28:27;;;;;;;75.60;39.97;;;;;;;5.55;83.61;99171.69;5089667;28;20567;-39
2021/12/28 01:30:53;;;;;;;79.40;41.25;;;;;;;5.51;83.80;99168.59;5090439;28;20028;-39
2021/12/28 01:33:18;;;;;;;75.82;41.22;;;;;;;5.54;84.07;99160.31;5090479;28;20046;-39
2021/12/28 01:35:44;;;;;;;81.25;42.95;;;;;;;5.59;83.58;99160.56;5088273;28;20019;-39
2021/12/28 01:38:10;;;;;;;78.00;41.53;;;;;;;5.66;83.41;99160.66;5090226;28;20329;-38
2021/12/28 01:40:40;;;;;;;73.13;40.55;;;;;;;5.40;84.34;99158.50;5089590;28;20197;-38
2021/12/28 01:43:06;;;;;;;76.63;41.53;;;;;;;5.05;86.37;99164.34;5090039;28;20065;-39
2021/12/28 01:45:38;;;;;;;80.07;41.92;;;;;;;5.26;85.22;99166.25;5090301;28;20468;-39
2021/12/28 01:48:05;;;;;;;70.53;38.25;;;;;;;5.01;84.40;99162.25;5089985;28;20031;-39
2021/12/28 01:50:31;;;;;;;76.88;41.05;;;;;;;4.79;84.99;99158.69;5089867;28;20180;-38
2021/12/28 01:52:56;;;;;;;67.63;37.75;;;;;;;4.73;84.51;99157.59;5089550;28;20057;-38
2021/12/28 01:55:22;;;;;;;73.43;40.17;;;;;;;4.72;86.64;99157.75;5085344;28;20023;-38
2021/12/28 01:57:47;;;;;;;78.07;39.20;;;;;;;4.64;86.40;99156.03;5090281;28;20103;-40
2021/12/28 02:00:13;;;;;;;75.50;41.90;;;;;;;4.60;86.75;99149.47;5090232;28;20031;-39
2021/12/28 02:02:39;;;;;;;74.10;40.67;;;;;;;4.63;86.94;99165.75;5090031;28;20024;-39
2021/12/28 02:05:04;;;;;;;83.82;43.83;;;;;;;5.21;83.70;99162.53;5090125;28;20022;-39
2021/12/28 02:07:30;;;;;;;79.97;41.40;;;;;;;4.74;83.87;99155.75;5089767;28;20050;-40
2021/12/28 02:09:55;;;;;;;74.32;38.90;;;;;;;4.40;84.52;99159.69;5089756;28;20043;-40
2021/12/28 02:12:21;;;;;;;75.53;40.20;;;;;;;4.38;84.65;99156.41;5089836;28;20098;-40
2021/12/28 02:14:47;;;;;;;78.47;41.47;;;;;;;4.28;84.37;99162.78;5089778;28;20024;-40
2021/12/28 02:17:14;;;;;;;73.22;39.78;;;;;;;4.32;84.36;99163.22;5089772;28;20028;-40
2021/12/28 02:19:40;;;;;;;76.65;39.75;;;;;;;4.23;85.40;99159.84;5090460;28;20028;-38
2021/12/28 02:22:06;;;;;;;77.85;41.83;;;;;;;4.27;84.65;99145.31;5090166;28;20020;-38
2021/12/28 02:24:31;;;;;;;83.47;43.95;;;;;;;4.13;85.66;99153.97;5089051;28;20458;-39
2021/12/28 02:26:56;;;;;;;77.15;42.63;;;;;;;4.33;84.45;99154.31;5089706;28;20039;-39
2021/12/28 02:29:22;;;;;;;89.65;45.90;;;;;;;4.35;86.06;99154.16;5089662;28;20131;-39
2021/12/28 02:31:50;;;;;;;88.18;44.95;;;;;;;4.17;86.29;99154.44;5089733;28;20027;-38
2021/12/28 02:34:16;;;;;;;87.70;44.35;;;;;;;4.14;86.04;99147.72;5089486;28;20028;-39
2021/12/28 02:36:41;;;;;;;87.35;43.97;;;;;;;4.28;86.64;99146.97;5088545;28;20085;-39
2021/12/28 02:39:07;;;;;;;84.88;45.13;;;;;;;4.18;86.45;99127.94;5089532;28;20028;-39
2021/12/28 02:41:32;;;;;;;88.05;45.47;;;;;;;4.44;86.11;99153.09;5089610;28;20093;-39
2021/12/28 02:44:00;;;;;;;90.65;47.67;;;;;;;4.58;84.73;99151.47;5089696;28;20444;-40
2021/12/28 02:46:25;;;;;;;92.20;46.00;;;;;;;4.59;85.15;99145.19;5089618;28;20024;-40
2021/12/28 02:48:51;;;;;;;90.07;45.85;;;;;;;4.45;85.18;99139.72;5089572;28;20020;-39
2021/12/28 02:51:16;;;;;;;88.72;46.17;;;;;;;4.26;85.20;99104.16;5089844;28;20042;-40
2021/12/28 02:53:43;;;;;;;86.80;45.58;;;;;;;4.57;85.14;99145.41;5093610;28;20028;-39
2021/12/28 02:56:09;;;;;;;91.85;45.55;;;;;;;4.33;86.49;99146.41;5093325;28;20027;-40
2021/12/28 02:58:36;;;;;;;89.68;44.92;;;;;;;4.37;85.75;99145.06;5093270;28;20097;-39
2021/12/28 03:01:09;;;;;;;86.47;43.72;;;;;;;4.42;85.10;99148.00;5093431;28;20384;-40
2021/12/28 03:03:35;;;;;;;86.93;46.17;;;;;;;4.57;84.98;99144.56;5093552;28;20020;-40
2021/12/28 03:06:01;;;;;;;87.47;43.72;;;;;;;4.53;85.58;99140.66;5093161;28;20134;-40
2021/12/28 03:08:28;;;;;;;83.28;44.13;;;;;;;4.59;85.78;99143.41;5093284;28;20108;-40
2021/12/28 03:10:54;;;;;;;90.10;45.78;;;;;;;4.57;83.69;99140.13;5093131;28;20426;-40
2021/12/28 03:13:22;;;;;;;85.53;45.25;;;;;;;4.65;83.86;99139.22;5093293;28;20081;-40
2021/12/28 03:15:48;;;;;;;85.07;44.28;;;;;;;4.45;84.41;99139.72;5092995;28;20179;-39
2021/12/28 03:18:13;;;;;;;88.13;46.75;;;;;;;4.24;86.00;99137.75;5093059;28;20424;-39
2021/12/28 03:20:39;;;;;;;90.57;46.67;;;;;;;4.20;87.42;99125.13;5093218;28;20031;-39
2021/12/28 03:23:04;;;;;;;86.07;43.75;;;;;;;4.10;87.22;99134.09;5093067;28;20036;-39
2021/12/28 03:25:30;;;;;;;88.65;46.40;;;;;;;4.16;86.37;99137.81;5093015;28;20028;-39
2021/12/28 03:27:56;;;;;;;85.35;44.40;;;;;;;4.13;85.20;99137.34;5093055;28;20024;-39
2021/12/28 03:30:21;;;;;;;86.22;43.88;;;;;;;4.13;86.01;99132.09;5092785;28;20024;-39
2021/12/28 03:32:47;;;;;;;88.22;44.92;;;;;;;3.95;86.48;99135.03;5074424;28;20042;-39
2021/12/28 03:35:13;;;;;;;83.22;45.08;;;;;;;3.92;87.45;99126.50;5092649;28;20051;-39
2021/12/28 03:37:38;;;;;;;94.57;46.42;;;;;;;4.02;87.93;99123.63;5092734;28;20031;-39
2021/12/28 03:40:09;;;;;;;94.35;46.05;;;;;;;4.06;87.06;99126.72;5092666;28;20107;-39
2021/12/28 03:42:35;;;;;;;95.32;47.17;;;;;;;4.11;86.43;99127.84;5092550;28;20552;-39
2021/12/28 03:45:00;;;;;;;92.00;47.50;;;;;;;4.07;86.62;99128.34;5092719;28;20024;-38
2021/12/28 03:47:26;;;;;;;95.05;46.67;;;;;;;4.10;87.27;99138.53;5092493;28;20070;-39
2021/12/28 03:49:51;;;;;;;90.88;47.58;;;;;;;4.03;87.16;99142.88;5092529;28;20036;-38
2021/12/28 03:52:17;;;;;;;86.65;44.80;;;;;;;4.13;87.43;99143.44;5092344;28;20020;-38
2021/12/28 03:54:42;;;;;;;87.80;45.05;;;;;;;4.27;86.16;99145.31;5092376;28;20069;-39
2021/12/28 03:57:08;;;;;;;95.18;48.78;;;;;;;4.12;87.57;99157.63;5092582;28;20028;-39
2021/12/28 03:59:33;;;;;;;95.00;47.08;;;;;;;4.08;86.64;99156.34;5092317;28;20036;-38
2021/12/28 04:01:59;;;;;;;88.40;46.55;;;;;;;4.15;85.86;99159.06;5092225;28;20048;-38
2021/12/28 04:04:24;;;;;;;85.35;46.47;;;;;;;4.02;85.85;99157.84;5091922;28;20024;-39
2021/12/28 04:06:50;;;;;;;95.40;47.47;;;;;;;3.95;86.93;99164.00;5092095;28;20056;-39
2021/12/28 04:09:23;;;;;;;93.47;47.30;;;;;;;4.11;86.71;99167.34;5092142;28;20104;-39
2021/12/28 04:11:48;;;;;;;91.53;47.17;;;;;;;3.94;85.65;99165.81;5091982;28;20032;-39
2021/12/28 04:14:13;;;;;;;92.88;47.83;;;;;;;4.04;86.04;99170.84;5091862;28;20032;-39
2021/12/28 04:16:39;;;;;;;96.88;48.50;;;;;;;3.95;84.84;99171.91;5092237;28;20413;-39
2021/12/28 04:19:04;;;;;;;101.32;50.40;;;;;;;4.00;84.79;99178.28;5092099;28;20024;-39
2021/12/28 04:21:31;;;;;;;101.95;51.08;;;;;;;3.88;85.33;99169.97;5091610;28;20038;-39
2021/12/28 04:23:56;;;;;;;92.28;46.58;;;;;;;3.72;85.27;99172.69;5091735;28;20123;-39
2021/12/28 04:26:22;;;;;;;93.07;48.00;;;;;;;3.75;85.15;99172.34;5091280;28;20476;-39
2021/12/28 04:28:47;;;;;;;93.70;46.60;;;;;;;3.60;85.48;99168.78;5091632;28;20030;-39
2021/12/28 04:31:13;;;;;;;91.90;45.88;;;;;;;3.50;87.22;99172.47;5091721;28;20471;-39
2021/12/28 04:33:39;;;;;;;89.10;44.90;;;;;;;3.54;87.48;99165.03;5091511;28;20028;-39
2021/12/28 04:36:06;;;;;;;86.35;44.05;;;;;;;3.48;86.90;99168.34;5091799;28;20392;-39
2021/12/28 04:38:31;;;;;;;83.38;43.20;;;;;;;3.36;87.20;99169.72;5091387;28;20102;-39
2021/12/28 04:40:57;;;;;;;90.82;45.42;;;;;;;3.38;87.48;99163.31;5090987;28;20047;-39
2021/12/28 04:43:23;;;;;;;87.95;44.75;;;;;;;3.41;87.21;99154.25;5091267;28;20032;-39
2021/12/28 04:45:49;;;;;;;91.63;44.50;;;;;;;3.64;89.41;99168.28;5091439;28;20483;-39
2021/12/28 04:48:14;;;;;;;78.22;40.25;;;;;;;3.43;88.89;99171.50;5091291;28;20047;-39
2021/12/28 04:50:42;;;;;;;77.20;39.22;;;;;;;3.49;88.45;99189.22;5091183;28;20028;-39
2021/12/28 04:53:09;;;;;;;73.28;37.30;;;;;;;3.57;89.09;99184.94;5091114;28;20154;-38
2021/12/28 04:55:37;;;;;;;78.50;40.15;;;;;;;3.60;88.12;99176.69;5090822;28;20036;-39
2021/12/28 04:58:03;;;;;;;78.82;39.42;;;;;;;3.65;88.68;99183.06;5091049;28;20020;-39
2021/12/28 05:00:28;;;;;;;76.88;38.17;;;;;;;3.66;88.51;99183.91;5091290;28;20031;-39
2021/12/28 05:02:54;;;;;;;73.00;37.70;;;;;;;3.72;88.69;99189.28;5090999;28;20443;-39
2021/12/28 05:05:19;;;;;;;67.00;34.65;;;;;;;3.67;88.82;99191.59;5091504;28;20043;-40
2021/12/28 05:07:44;;;;;;;72.80;36.22;;;;;;;3.64;89.59;99188.53;5091136;28;20055;-38
2021/12/28 05:10:10;;;;;;;73.25;36.72;;;;;;;3.65;89.31;99182.25;5090956;28;20035;-38
2021/12/28 05:12:36;;;;;;;69.32;35.25;;;;;;;3.67;89.60;99182.91;5090657;28;20467;-38
2021/12/28 05:15:02;;;;;;;67.47;36.80;;;;;;;3.76;89.49;99183.69;5090018;28;20337;-39
2021/12/28 05:17:28;;;;;;;72.90;38.30;;;;;;;3.64;89.18;99178.00;5089454;28;20028;-39
2021/12/28 05:19:54;;;;;;;64.20;35.80;;;;;;;3.54;89.20;99180.81;5090613;28;20509;-38
2021/12/28 05:22:20;;;;;;;69.55;36.72;;;;;;;5.13;94.80;99184.53;5090508;28;20028;-38
2021/12/28 05:24:45;;;;;;;61.20;32.40;;;;;;;5.89;86.43;99184.25;5090771;28;20115;-39
2021/12/28 05:27:11;;;;;;;58.67;31.58;;;;;;;6.57;79.93;99195.31;5090829;28;20034;-38
2021/12/28 05:29:36;;;;;;;56.75;30.52;;;;;;;6.40;73.98;99196.59;5085332;28;20043;-39
2021/12/28 05:32:02;;;;;;;55.97;30.45;;;;;;;5.78;77.74;99190.81;5070527;28;20440;-38
2021/12/28 05:34:27;;;;;;;55.30;29.42;;;;;;;5.30;79.71;99193.09;5070128;28;20085;-38
2021/12/28 05:36:53;;;;;;;55.55;30.75;;;;;;;4.52;83.37;99189.91;5070151;28;20020;-38
2021/12/28 05:39:18;;;;;;;51.92;29.35;;;;;;;4.04;86.13;99203.25;5070143;28;20089;-39
2021/12/28 05:41:44;;;;;;;56.75;30.73;;;;;;;4.03;86.05;99198.97;5070227;28;20032;-39
2021/12/28 05:44:09;;;;;;;51.83;28.85;;;;;;;3.78;86.19;99200.13;5070229;28;20157;-39
2021/12/28 05:46:35;;;;;;;65.78;35.33;;;;;;;3.57;86.53;99201.53;5070540;28;20024;-38
2021/12/28 05:49:00;;;;;;;78.22;37.72;;;;;;;4.15;85.43;99201.22;5069976;28;20103;-39
2021/12/28 05:51:26;;;;;;;147.35;72.97;;;;;;;3.74;85.24;99202.28;5069692;28;20035;-38
2021/12/28 05:53:51;;;;;;;186.02;88.07;;;;;;;3.70;86.47;99198.34;5069848;28;20024;-39
2021/12/28 05:56:17;;;;;;;181.85;88.07;;;;;;;3.83;87.14;99197.81;5087655;28;20024;-38
2021/12/28 05:58:42;;;;;;;146.05;73.38;;;;;;;3.80;86.74;99203.41;5089748;28;20085;-39
2021/12/28 06:01:08;;;;;;;145.77;69.28;;;;;;;3.87;85.82;99201.72;5088676;28;20118;-39
2021/12/28 06:03:33;;;;;;;82.47;41.33;;;;;;;3.64;88.47;99207.75;5090073;28;20101;-39
2021/12/28 06:05:59;;;;;;;72.10;37.35;;;;;;;3.84;88.39;99213.41;5090005;28;20030;-39
2021/12/28 06:08:24;;;;;;;67.97;35.38;;;;;;;4.14;87.71;99215.38;5089660;28;20024;-51
2021/12/28 06:10:50;;;;;;;62.80;35.78;;;;;;;4.20;86.85;99218.13;5089463;28;20035;-49
2021/12/28 06:13:15;;;;;;;82.32;41.63;;;;;;;4.35;85.77;99222.66;5089543;28;20408;-50
2021/12/28 06:15:41;;;;;;;90.05;47.83;;;;;;;4.31;83.92;99224.81;5089169;28;20095;-48
2021/12/28 06:18:06;;;;;;;69.00;37.00;;;;;;;4.02;84.71;99221.03;5089230;28;20096;-49
2021/12/28 06:20:32;;;;;;;108.07;52.60;;;;;;;3.84;85.58;99213.41;5089424;28;20054;-51
2021/12/28 06:22:57;;;;;;;116.78;52.92;;;;;;;3.67;86.74;99214.47;5089287;28;20047;-48
2021/12/28 06:25:23;;;;;;;70.53;38.75;;;;;;;3.74;86.90;99219.88;5089615;28;20020;-53
2021/12/28 06:27:49;;;;;;;68.35;37.90;;;;;;;3.98;87.35;99213.66;5093287;28;20103;-52
2021/12/28 06:30:14;;;;;;;66.13;34.90;;;;;;;3.91;87.24;99219.63;5093164;28;20478;-53
2021/12/28 06:32:40;;;;;;;67.15;34.95;;;;;;;3.92;87.58;99223.91;5092764;28;20444;-51
2021/12/28 06:35:06;;;;;;;61.67;33.22;;;;;;;3.92;87.25;99220.44;5091212;28;20085;-49
2021/12/28 06:37:32;;;;;;;57.80;32.63;;;;;;;3.94;88.45;99222.91;5093165;28;20106;-50
2021/12/28 06:39:57;;;;;;;59.60;33.13;;;;;;;4.16;88.19;99234.47;5093061;28;20027;-49
2021/12/28 06:42:23;;;;;;;62.75;33.38;;;;;;;4.18;87.25;99230.66;5093159;28;20034;-49
2021/12/28 06:44:51;;;;;;;64.40;34.20;;;;;;;4.23;87.00;99235.41;5093993;28;20373;-50
2021/12/28 06:47:16;;;;;;;60.17;32.33;;;;;;;4.39;85.85;99231.84;5087123;28;20126;-49
2021/12/28 06:49:42;;;;;;;50.03;28.63;;;;;;;4.42;88.01;99239.41;5093690;28;20088;-48
2021/12/28 06:52:08;;;;;;;48.92;27.98;;;;;;;4.64;87.46;99235.91;5093533;28;20495;-50
2021/12/28 06:54:37;;;;;;;52.67;27.60;;;;;;;4.75;86.72;99231.22;5092533;28;20421;-49
2021/12/28 06:57:07;;;;;;;45.47;26.10;;;;;;;5.03;86.76;99231.47;5091843;28;20483;-50
2021/12/28 06:59:34;;;;;;;47.30;26.25;;;;;;;5.57;85.18;99230.38;5092862;28;20020;-51
2021/12/28 07:02:00;;;;;;;46.50;25.52;;;;;;;5.96;84.02;99229.25;5092792;28;20157;-51
2021/12/28 07:04:25;;;;;;;45.33;24.58;;;;;;;6.13;83.47;99235.97;5093214;28;20019;-52
2021/12/28 07:06:51;;;;;;;37.45;22.58;;;;;;;6.50;82.39;99228.78;5093012;28;20048;-51
2021/12/28 07:09:16;;;;;;;32.35;19.92;;;;;;;6.88;81.18;99228.50;5091611;28;20385;-51
2021/12/28 07:11:42;;;;;;;32.95;20.15;;;;;;;7.03;81.40;99231.88;5090636;28;20027;-52
2021/12/28 07:14:08;;;;;;;30.95;18.60;;;;;;;7.35;80.24;99232.28;5090366;28;20388;-51
2021/12/28 07:16:34;;;;;;;33.78;18.10;;;;;;;7.57;79.91;99234.84;5090807;28;20048;-50
2021/12/28 07:18:59;;;;;;;34.85;18.92;;;;;;;8.33;79.18;99236.53;5090342;28;20028;-50
2021/12/28 07:21:25;;;;;;;39.28;19.42;;;;;;;8.97;75.69;99241.28;5090555;28;20036;-49
2021/12/28 07:23:50;;;;;;;35.42;21.25;;;;;;;8.67;74.47;99242.72;5089628;28;20027;-51
2021/12/28 07:26:16;;;;;;;39.03;22.92;;;;;;;8.81;74.12;99244.34;5091204;28;20055;-51
2021/12/28 07:28:41;;;;;;;42.83;21.73;;;;;;;8.80;73.29;99245.38;5092441;28;20028;-51
2021/12/28 07:31:07;;;;;;;95.68;46.80;;;;;;;8.76;74.13;99241.50;5092183;28;20028;-49
2021/12/28 07:33:32;;;;;;;40.97;23.83;;;;;;;9.05;73.32;99236.81;5091917;28;20024;-51
2021/12/28 07:35:57;;;;;;;38.03;20.17;;;;;;;9.18;74.43;99229.63;5092123;28;20020;-48
2021/12/28 07:38:23;;;;;;;29.48;18.00;;;;;;;9.96;70.94;99218.16;5091399;28;20035;-48
2021/12/28 07:40:48;;;;;;;31.50;18.83;;;;;;;9.86;70.90;99220.44;5092654;28;20027;-49
2021/12/28 07:43:14;;;;;;;31.42;19.48;;;;;;;9.94;70.64;99220.19;5092389;28;20039;-49
2021/12/28 07:45:39;;;;;;;33.65;20.42;;;;;;;9.76;70.89;99218.22;5092169;28;20150;-51
2021/12/28 07:48:05;;;;;;;32.80;19.55;;;;;;;9.83;69.96;99215.56;5091776;28;20032;-49
2021/12/28 07:50:30;;;;;;;32.50;19.25;;;;;;;9.65;70.88;99218.88;5091833;28;20051;-48
2021/12/28 07:52:56;;;;;;;31.50;19.10;;;;;;;9.70;71.12;99229.69;5091841;28;20020;-48
2021/12/28 07:55:21;;;;;;;32.13;19.67;;;;;;;10.76;68.73;99230.16;5091680;28;20039;-48
2021/12/28 07:57:47;;;;;;;34.05;19.50;;;;;;;10.72;67.18;99223.63;5091968;28;20425;-47
2021/12/28 08:00:14;;;;;;;33.10;19.33;;;;;;;10.24;69.24;99221.47;5091983;28;20039;-48
2021/12/28 08:02:42;;;;;;;40.10;24.35;;;;;;;10.43;67.78;99217.09;5091879;28;20034;-49
2021/12/28 08:05:08;;;;;;;32.05;19.90;;;;;;;10.50;67.55;99209.88;5091779;28;20024;-48
2021/12/28 08:07:33;;;;;;;30.27;18.83;;;;;;;10.61;68.59;99213.69;5091400;28;20428;-50
2021/12/28 08:09:58;;;;;;;30.17;19.08;;;;;;;10.69;70.36;99224.88;5091667;28;20039;-48
2021/12/28 08:12:24;;;;;;;29.33;18.73;;;;;;;11.95;65.99;99218.50;5091862;28;20144;-48
2021/12/28 08:14:49;;;;;;;28.75;17.25;;;;;;;11.65;65.72;99214.72;5091622;28;20024;-49
2021/12/28 08:17:15;;;;;;;26.65;17.02;;;;;;;11.72;65.31;99215.44;5091324;28;20100;-51
2021/12/28 08:19:40;;;;;;;32.65;18.75;;;;;;;11.39;65.94;99223.03;5091434;28;20445;-48
2021/12/28 08:22:06;;;;;;;27.60;17.73;;;;;;;11.40;66.38;99224.63;5091462;28;20028;-48
2021/12/28 08:24:34;;;;;;;30.02;17.42;;;;;;;11.59;65.39;99207.59;5091343;28;20028;-48
2021/12/28 08:27:00;;;;;;;21.63;13.88;;;;;;;12.06;63.57;99212.41;5091240;28;20031;-49
2021/12/28 08:29:26;;;;;;;29.17;15.88;;;;;;;12.30;64.08;99213.31;5090961;28;20020;-48
2021/12/28 08:31:51;;;;;;;19.95;13.00;;;;;;;12.04;63.41;99215.28;5090477;28;20068;-48
2021/12/28 08:34:17;;;;;;;17.17;12.02;;;;;;;12.17;64.13;99218.84;5089833;28;20035;-48
2021/12/28 08:36:42;;;;;;;18.25;12.00;;;;;;;12.25;63.19;99216.63;5090989;28;20023;-51
2021/12/28 08:39:08;;;;;;;20.23;12.63;;;;;;;12.07;63.79;99216.69;5091180;28;20373;-49
2021/12/28 08:41:33;;;;;;;19.67;13.27;;;;;;;12.06;63.11;99207.06;5090180;28;20069;-49
2021/12/28 08:43:59;;;;;;;21.80;14.00;;;;;;;11.99;63.32;99215.13;5090507;28;20496;-50
2021/12/28 08:46:24;;;;;;;25.88;14.90;;;;;;;11.80;64.02;99208.19;5090988;28;20035;-49
2021/12/28 08:48:51;;;;;;;21.75;15.15;;;;;;;11.92;63.85;99211.78;5090111;28;20112;-47
2021/12/28 08:51:17;;;;;;;22.30;15.90;;;;;;;12.24;63.73;99208.84;5090610;28;20099;-49
2021/12/28 08:53:42;;;;;;;24.05;15.38;;;;;;;12.31;62.11;99210.38;5090966;28;20095;-51
2021/12/28 08:56:08;;;;;;;20.40;13.45;;;;;;;12.56;61.79;99221.94;5090265;28;20468;-50
2021/12/28 08:58:33;;;;;;;22.80;14.32;;;;;;;12.49;62.02;99209.53;5090279;28;20027;-51
2021/12/28 09:00:59;;;;;;;20.90;14.10;;;;;;;12.52;62.25;99206.38;5090436;28;20107;-48
2021/12/28 09:03:24;;;;;;;20.10;13.27;;;;;;;12.64;62.12;99203.75;5088982;28;20050;-50
2021/12/28 09:05:50;;;;;;;20.17;13.18;;;;;;;12.64;61.95;99197.56;5090426;28;20028;-48
2021/12/28 09:08:17;;;;;;;21.98;13.75;;;;;;;12.97;61.04;99196.22;5090324;28;20024;-49
2021/12/28 09:10:43;;;;;;;23.42;13.52;;;;;;;12.95;60.97;99190.31;5090371;28;20051;-50
2021/12/28 09:13:09;;;;;;;19.90;14.13;;;;;;;12.91;60.70;99195.31;5090426;28;20484;-49
2021/12/28 09:15:35;;;;;;;20.40;14.05;;;;;;;13.02;60.85;99185.66;5090439;28;20028;-50
2021/12/28 09:18:01;;;;;;;23.55;14.68;;;;;;;12.92;61.45;99188.91;5090832;28;20040;-49
2021/12/28 09:20:26;;;;;;;22.90;14.45;;;;;;;13.05;60.13;99174.50;5090613;28;20043;-48
2021/12/28 09:22:53;;;;;;;24.15;14.65;;;;;;;13.14;60.36;99181.13;5090432;28;20031;-48
2021/12/28 09:25:19;;;;;;;21.88;14.73;;;;;;;13.20;59.96;99174.84;5089787;28;20027;-50
2021/12/28 09:27:45;;;;;;;22.05;14.68;;;;;;;13.07;60.57;99175.88;5088505;28;20024;-51
2021/12/28 09:30:11;;;;;;;22.38;15.55;;;;;;;13.26;60.61;99171.22;5089852;28;20179;-49
2021/12/28 09:32:36;;;;;;;23.27;14.93;;;;;;;13.14;60.34;99165.09;5090216;28;20024;-50
2021/12/28 09:35:02;;;;;;;24.67;13.90;;;;;;;13.48;60.08;99159.97;5089502;28;20392;-49
2021/12/28 09:37:28;;;;;;;21.40;14.43;;;;;;;13.37;60.25;99150.09;5088409;28;20035;-51
2021/12/28 09:39:53;;;;;;;24.48;14.85;;;;;;;13.29;60.03;99160.06;5089741;28;20467;-51
2021/12/28 09:42:19;;;;;;;22.02;15.27;;;;;;;13.52;59.58;99157.59;5090015;28;20047;-49
2021/12/28 09:44:47;;;;;;;101.80;57.03;;;;;;;13.68;59.35;99149.63;5090157;28;20047;-50
2021/12/28 09:47:14;;;;;;;32.63;20.00;;;;;;;13.70;59.33;99144.06;5090045;28;20032;-48
2021/12/28 09:49:40;;;;;;;24.55;15.90;;;;;;;13.88;59.32;99153.78;5090027;28;20092;-49
2021/12/28 09:52:05;;;;;;;21.23;14.80;;;;;;;13.81;59.27;99153.09;5089733;28;20027;-49
2021/12/28 09:54:33;;;;;;;22.30;15.32;;;;;;;13.85;59.09;99146.22;5089581;28;20051;-50
2021/12/28 09:57:00;;;;;;;24.50;14.80;;;;;;;13.69;60.13;99140.59;5089736;28;20024;-51
2021/12/28 09:59:26;;;;;;;23.70;15.80;;;;;;;13.52;59.66;99139.72;5090020;28;20023;-51
2021/12/28 10:01:52;;;;;;;25.48;15.13;;;;;;;13.27;60.62;99146.13;5089671;28;20028;-51
2021/12/28 10:04:18;;;;;;;25.88;14.73;;;;;;;13.37;61.36;99134.06;5089777;28;20089;-48
2021/12/28 10:06:43;;;;;;;22.58;14.63;;;;;;;13.53;60.44;99140.53;5089600;28;20143;-48
2021/12/28 10:09:20;;;;;;;23.38;15.50;;;;;;;13.67;60.57;99136.53;5090151;28;20020;-48
2021/12/28 10:11:49;;;;;;;26.90;15.70;;;;;;;13.67;59.72;99140.00;5089637;28;20099;-49
2021/12/28 10:14:20;;;;;;;23.77;15.60;;;;;;;13.30;59.68;99131.50;5089264;28;20024;-49
2021/12/28 10:16:53;;;;;;;23.80;16.23;;;;;;;13.24;60.46;99135.91;5089956;28;20031;-48
2021/12/28 10:19:47;;;;;;;24.13;16.15;;;;;;;12.99;61.03;99130.84;5089325;28;20020;-48
2021/12/28 10:22:28;;;;;;;23.17;15.95;;;;;;;13.09;61.40;99120.38;5079845;28;20040;-48
2021/12/28 10:25:17;;;;;;;28.27;17.08;;;;;;;13.31;60.93;99114.44;5088871;28;20034;-49
2021/12/28 10:27:48;;;;;;;24.20;16.25;;;;;;;13.26;61.18;99115.09;5089422;28;20028;-47
2021/12/28 10:30:21;;;;;;;23.80;15.10;;;;;;;13.31;60.15;99109.09;5089006;28;20099;-50
2021/12/28 10:32:49;;;;;;;25.02;15.90;;;;;;;13.47;60.31;99112.88;5089270;28;20451;-48
2021/12/28 10:35:20;;;;;;;28.65;16.20;;;;;;;13.37;60.36;99112.69;5089028;28;20495;-48
2021/12/28 10:37:49;;;;;;;26.08;16.60;;;;;;;13.23;61.55;99104.09;5089252;28;20072;-49
2021/12/28 10:40:22;;;;;;;27.25;16.23;;;;;;;13.25;61.67;99102.81;5089032;28;20433;-48
2021/12/28 10:42:52;;;;;;;26.77;16.15;;;;;;;13.35;61.72;99099.56;5089376;28;20165;-49
2021/12/28 10:45:20;;;;;;;27.08;16.25;;;;;;;13.68;60.45;99098.84;5089557;28;20043;-52
2021/12/28 10:47:46;;;;;;;26.20;15.95;;;;;;;13.64;59.82;99097.69;5089301;28;20028;-49
2021/12/28 10:50:30;;;;;;;23.63;15.68;;;;;;;13.33;60.97;99071.44;5089278;28;20412;-49
2021/12/28 10:53:34;;;;;;;21.58;14.50;;;;;;;13.66;60.15;99103.63;5089192;28;20031;-49
2021/12/28 10:56:00;;;;;;;20.05;14.13;;;;;;;13.93;59.50;99092.31;5089232;28;20428;-49
2021/12/28 10:58:42;;;;;;;23.40;14.52;;;;;;;13.93;59.08;99089.66;5089237;28;20024;-50
2021/12/28 11:01:13;;;;;;;22.83;14.43;;;;;;;13.64;60.03;99081.66;5089349;28;20020;-48
2021/12/28 11:03:43;;;;;;;22.67;14.57;;;;;;;13.47;60.61;99086.16;5089121;28;20127;-48
2021/12/28 11:06:19;;;;;;;24.30;15.02;;;;;;;13.49;60.84;99081.38;5089007;28;20125;-48
2021/12/28 11:08:46;;;;;;;23.88;15.57;;;;;;;13.51;60.90;99079.28;5089314;28;20107;-48
2021/12/28 11:11:13;;;;;;;25.25;15.98;;;;;;;13.61;61.19;99076.81;5089067;28;20103;-49
2021/12/28 11:13:39;;;;;;;24.95;14.70;;;;;;;13.72;61.19;99075.13;5091543;28;20027;-48
2021/12/28 11:16:09;;;;;;;78.95;44.83;;;;;;;13.71;59.92;99043.25;5092873;28;20024;-50
2021/12/28 11:18:37;;;;;;;30.58;19.63;;;;;;;13.89;59.44;99065.25;5092642;28;20028;-48
2021/12/28 11:21:20;;;;;;;28.48;16.10;;;;;;;13.96;60.01;99065.09;5092861;28;20028;-48